Flight Track Log - Related Links

Times and Time Zones

All times are in EDT time to prevent confusion due to time zone crossing. See the SOO401 flight status page for this flight to view local times or setup timezone preferences in your user account.

Time Position Orientation Groundspeed Altitude Reporting Facility
EDT Latitude Longitude Course Direction KTS MPH feet Rate Location/Type
Mon 04:48:40 PM 25.7983 -80.2631 107° East 154 177 700  Level Miami Center
Mon 04:54:37 PM 25.6770 -79.8280 103° East 362 417 11,500 1,859 Climbing FlightAware ADS-B
Mon 04:55:17 PM 25.6490 -79.7560 113° Southeast 383 441 13,000 1,789 Climbing FlightAware ADS-B
Mon 04:59:12 PM 25.3940 -79.3920 128° Southeast 424 488 19,700 2,441 Climbing FlightAware ADS-B
Mon 05:00:07 PM 25.3070 -79.2660 127° Southeast 459 528 24,800 1,255 Climbing FlightAware ADS-B
Mon 05:04:42 PM 25.0710 -78.7070 115° Southeast 490 564 26,600 1,779 Climbing FlightAware ADS-B
Mon 05:05:51 PM 24.9203 -78.4536 115° Southeast 540 621 35,000 4,651 Climbing Miami Center
Mon 05:06:51 PM 24.8233 -78.3333 132° Southeast 540 621 36,600 1,500 Climbing Miami Center
Mon 05:07:51 PM 24.7242 -78.2108 132° Southeast 535 616 38,000 1,100 Climbing Miami Center
Mon 05:08:51 PM 24.6269 -78.0886 131° Southeast 530 610 38,800 500 Climbing Miami Center
Mon 05:09:51 PM 24.5297 -77.9714 132° Southeast 525 604 39,000 100 Climbing Miami Center
Mon 05:10:51 PM 24.4197 -77.8356 132° Southeast 531 611 39,000  Level Miami Center
Mon 05:11:51 PM 24.3244 -77.7164 131° Southeast 531 611 39,000  Level Miami Center
Mon 05:12:51 PM 24.2247 -77.5950 132° Southeast 531 611 39,000  Level Miami Center
Mon 05:13:51 PM 24.1269 -77.4736 131° Southeast 531 611 39,000  Level Miami Center
Mon 05:14:51 PM 24.0272 -77.3525 132° Southeast 531 611 39,000  Level Miami Center
Mon 05:15:51 PM 23.9250 -77.2294 132° Southeast 531 611 39,000  Level Miami Center
Mon 05:16:51 PM 23.8375 -77.1200 131° Southeast 531 611 39,000  Level Miami Center
Mon 05:17:51 PM 23.7394 -76.9975 131° Southeast 536 617 39,000  Level Miami Center
Mon 05:18:51 PM 23.6392 -76.8769 132° Southeast 536 617 39,000  Level Miami Center
Mon 05:19:51 PM 23.5389 -76.7547 132° Southeast 536 617 39,000  Level Miami Center
Mon 05:20:51 PM 23.4364 -76.6325 132° Southeast 543 625 39,000  Level Miami Center
Mon 05:21:51 PM 23.3358 -76.5103 132° Southeast 543 625 39,000  Level Miami Center
Mon 05:22:51 PM 23.2331 -76.3908 133° Southeast 543 625 39,000  Level Miami Center
Mon 05:23:51 PM 23.1322 -76.2714 133° Southeast 543 625 39,000  Level Miami Center
Mon 05:24:51 PM 23.0336 -76.1522 132° Southeast 538 619 39,000  Level Miami Center
Mon 05:25:51 PM 22.9347 -76.0333 132° Southeast 538 619 39,000  Level Miami Center
Mon 05:26:51 PM 22.8339 -75.9144 133° Southeast 538 619 39,000  Level Miami Center
Mon 05:27:51 PM 22.7347 -75.7958 132° Southeast 538 619 39,000  Level Miami Center
Mon 05:28:51 PM 22.6358 -75.6797 133° Southeast 538 619 39,000  Level Miami Center
Mon 05:29:51 PM 22.5367 -75.5614 132° Southeast 538 619 39,000  Level Miami Center
Mon 05:30:51 PM 22.4353 -75.4433 133° Southeast 538 619 39,000  Level Miami Center
Mon 05:31:51 PM 22.3381 -75.3275 132° Southeast 538 619 39,000  Level Miami Center
Mon 05:32:51 PM 22.2367 -75.2119 133° Southeast 533 613 39,000  Level Miami Center
Mon 05:33:51 PM 22.1350 -75.0922 133° Southeast 533 613 39,000  Level Miami Center
Mon 05:34:51 PM 22.0272 -74.9817 136° Southeast 533 613 39,000  Level Miami Center
Mon 05:35:51 PM 21.9150 -74.8781 139° Southeast 533 613 39,000  Level Miami Center
Mon 05:36:51 PM 21.8031 -74.7703 138° Southeast 533 613 39,000  Level Miami Center
Mon 05:37:51 PM 21.6928 -74.6625 138° Southeast 538 619 39,000  Level Miami Center
Mon 05:38:51 PM 21.5806 -74.5550 138° Southeast 538 619 39,000  Level Miami Center
Mon 05:39:51 PM 21.4706 -74.4542 140° Southeast 538 619 39,000  Level Miami Center
Mon 05:40:51 PM 21.3581 -74.3492 139° Southeast 533 613 39,000  Level Miami Center
Mon 05:41:51 PM 21.2458 -74.2444 139° Southeast 533 613 39,000  Level Miami Center
Mon 05:42:51 PM 21.1353 -74.1375 138° Southeast 533 613 39,000  Level Miami Center
Mon 05:43:51 PM 21.0208 -74.0333 140° Southeast 538 619 39,000  Level Miami Center
Mon 05:44:51 PM 20.9103 -73.9289 139° Southeast 538 619 39,000  Level Miami Center
Mon 05:45:51 PM 20.7892 -73.8183 140° Southeast 538 619 39,000  Level Miami Center
Mon 05:46:51 PM 20.6786 -73.7144 139° Southeast 532 612 39,000  Level Miami Center
Mon 05:47:51 PM 20.5700 -73.6128 139° Southeast 527 606 39,000  Level Miami Center
Mon 05:48:51 PM 20.4572 -73.5092 139° Southeast 532 612 39,000  Level Miami Center
Mon 05:49:51 PM 20.3486 -73.4078 139° Southeast 532 612 39,000  Level Miami Center
Mon 05:50:51 PM 20.2336 -73.3025 139° Southeast 532 612 39,000  Level Miami Center
Mon 05:51:51 PM 20.1231 -73.2058 141° Southeast 532 612 39,000  Level Miami Center
Mon 05:53:00 PM 19.9926 -73.1257 153° Southeast  Level FlightAware Approximate
Mon 06:00:00 PM 19.1776 -72.6778 153° Southeast  Level FlightAware Approximate
Mon 06:01:00 PM 19.0611 -72.6142 153° Southeast  Level FlightAware Approximate
Mon 06:02:00 PM 18.9445 -72.5506 153° Southeast  Level FlightAware Approximate
Mon 06:03:00 PM 18.8279 -72.4872 153° Southeast  Level FlightAware Approximate
Mon 06:04:00 PM 18.7114 -72.4238 153° Southeast  Level FlightAware Approximate
Mon 06:05:00 PM 18.5948 -72.3606 153° Southeast  Level FlightAware Approximate
Mon 06:06:00 PM 18.4781 -72.2974 153° Southeast  Level FlightAware Approximate
Mon 06:07:00 PM 18.3615 -72.2343 153° Southeast  Level FlightAware Approximate
Mon 06:08:00 PM 18.2448 -72.1713 153° Southeast  Level FlightAware Approximate
Mon 06:09:00 PM 18.1281 -72.1083 153° Southeast  Level FlightAware Approximate
Mon 06:10:00 PM 18.0114 -72.0455 153° Southeast  Level FlightAware Approximate
Mon 06:11:00 PM 17.8947 -71.9827 153° Southeast  Level FlightAware Approximate
Mon 06:12:00 PM 17.7779 -71.9201 153° Southeast  Level FlightAware Approximate
Mon 06:13:00 PM 17.6612 -71.8575 153° Southeast  Level FlightAware Approximate
Mon 06:14:00 PM 17.5444 -71.7950 153° Southeast  Level FlightAware Approximate
Mon 06:15:00 PM 17.4276 -71.7325 153° Southeast  Level FlightAware Approximate
Mon 06:16:00 PM 17.3109 -71.6698 153° Southeast  Level FlightAware Approximate
Mon 06:17:00 PM 17.1944 -71.6069 153° Southeast  Level FlightAware Approximate
Mon 06:18:00 PM 17.0778 -71.5440 153° Southeast  Level FlightAware Approximate
Mon 06:19:00 PM 16.9613 -71.4812 153° Southeast  Level FlightAware Approximate
Mon 06:20:00 PM 16.8447 -71.4185 153° Southeast  Level FlightAware Approximate
Mon 06:21:00 PM 16.7281 -71.3559 153° Southeast  Level FlightAware Approximate
Mon 06:22:00 PM 16.6115 -71.2933 153° Southeast  Level FlightAware Approximate
Mon 06:23:00 PM 16.4949 -71.2308 153° Southeast  Level FlightAware Approximate
Mon 06:24:00 PM 16.3782 -71.1684 153° Southeast  Level FlightAware Approximate
Mon 06:25:00 PM 16.2616 -71.1061 153° Southeast  Level FlightAware Approximate
Mon 06:26:00 PM 16.1449 -71.0438 153° Southeast  Level FlightAware Approximate
Mon 06:27:00 PM 16.0282 -70.9817 153° Southeast  Level FlightAware Approximate
Mon 06:28:00 PM 15.9112 -70.9200 153° Southeast  Level FlightAware Approximate
Mon 06:29:00 PM 15.7942 -70.8586 153° Southeast  Level FlightAware Approximate
Mon 06:30:00 PM 15.6771 -70.7972 153° Southeast  Level FlightAware Approximate
Mon 06:31:00 PM 15.5600 -70.7359 153° Southeast  Level FlightAware Approximate
Mon 06:32:00 PM 15.4430 -70.6747 153° Southeast  Level FlightAware Approximate
Mon 06:33:00 PM 15.3258 -70.6135 153° Southeast  Level FlightAware Approximate
Mon 06:34:00 PM 15.2087 -70.5524 153° Southeast  Level FlightAware Approximate
Mon 06:35:00 PM 15.0916 -70.4914 153° Southeast  Level FlightAware Approximate
Mon 06:36:00 PM 14.9744 -70.4304 153° Southeast  Level FlightAware Approximate
Mon 06:37:00 PM 14.8573 -70.3696 153° Southeast  Level FlightAware Approximate
Mon 06:38:00 PM 14.7401 -70.3087 153° Southeast  Level FlightAware Approximate
Mon 06:39:00 PM 14.6229 -70.2480 153° Southeast  Level FlightAware Approximate
Mon 06:40:00 PM 14.5057 -70.1873 153° Southeast  Level FlightAware Approximate
Mon 06:41:00 PM 14.3884 -70.1266 153° Southeast  Level FlightAware Approximate
Mon 06:42:00 PM 14.2712 -70.0661 153° Southeast  Level FlightAware Approximate
Mon 06:43:00 PM 14.1539 -70.0056 153° Southeast  Level FlightAware Approximate
Mon 06:44:00 PM 14.0366 -69.9452 153° Southeast  Level FlightAware Approximate
Mon 06:45:00 PM 13.9193 -69.8848 153° Southeast  Level FlightAware Approximate
Mon 06:46:00 PM 13.8020 -69.8245 153° Southeast  Level FlightAware Approximate
Mon 06:47:00 PM 13.6847 -69.7642 153° Southeast  Level FlightAware Approximate
Mon 06:48:00 PM 13.5674 -69.7040 153° Southeast  Level FlightAware Approximate
Mon 06:49:00 PM 13.4500 -69.6439 154° Southeast  Level FlightAware Approximate
Mon 06:50:00 PM 13.3327 -69.5838 154° Southeast  Level FlightAware Approximate
Mon 06:51:00 PM 13.2153 -69.5238 154° Southeast  Level FlightAware Approximate
Mon 06:52:00 PM 13.0979 -69.4638 154° Southeast  Level FlightAware Approximate
Mon 06:53:00 PM 12.9805 -69.4039 154° Southeast  Level FlightAware Approximate
Mon 06:54:00 PM 12.8631 -69.3441 154° Southeast  Level FlightAware Approximate
Mon 06:55:00 PM 12.7456 -69.2843 154° Southeast  Level FlightAware Approximate
Mon 06:56:00 PM 12.6282 -69.2246 154° Southeast  Level FlightAware Approximate
Mon 06:57:00 PM 12.5107 -69.1649 154° Southeast  Level FlightAware Approximate
Mon 06:58:00 PM 12.3932 -69.1053 154° Southeast  Level FlightAware Approximate
Mon 06:59:00 PM 12.2755 -69.0461 154° Southeast  Level FlightAware Approximate
Mon 07:00:00 PM 12.1562 -68.9910 162° South  Level FlightAware Approximate
Mon 07:01:00 PM 12.0418 -68.9269 151° Southeast  Level FlightAware Approximate
Mon 07:02:00 PM 11.9266 -68.8629 151° Southeast  Level FlightAware Approximate
Mon 07:03:00 PM 11.8114 -68.7989 151° Southeast  Level FlightAware Approximate
Mon 07:04:00 PM 11.6937 -68.7440 151° Southeast  Level FlightAware Approximate
Mon 07:05:00 PM 11.5793 -68.6786 151° Southeast  Level FlightAware Approximate
Mon 07:06:00 PM 11.4643 -68.6143 152° Southeast  Level FlightAware Approximate
Mon 07:07:00 PM 11.3481 -68.5523 152° Southeast  Level FlightAware Approximate
Mon 07:08:00 PM 11.2317 -68.4908 154° Southeast  Level FlightAware Approximate
Mon 07:09:00 PM 11.1140 -68.4319 154° Southeast  Level FlightAware Approximate
Mon 07:10:00 PM 10.9963 -68.3731 154° Southeast  Level FlightAware Approximate
Mon 07:11:00 PM 10.8786 -68.3143 154° Southeast  Level FlightAware Approximate
Mon 07:12:00 PM 10.7629 -68.2516 151° Southeast  Level FlightAware Approximate
Mon 07:13:00 PM 10.6476 -68.1881 152° Southeast  Level FlightAware Approximate
Mon 07:14:00 PM 10.5320 -68.1250 152° Southeast  Level FlightAware Approximate
Mon 07:15:00 PM 10.4125 -68.0704 156° South  Level FlightAware Approximate
Mon 07:16:00 PM 10.3065 -68.0092 159° South  Level FlightAware Approximate
Mon 07:17:00 PM 10.1910 -67.9474 144° Southeast  Level FlightAware Approximate
Mon 07:18:00 PM 10.1500 -67.9167 144° Southeast  Level FlightAware Approximate
Mon 07:19:00 PM 10.1497 -67.9284 144° Southeast  Level Estimated
Mon 07:20:00 PM 10.1497 -67.9284 144° Southeast  Level Estimated
Mon 07:21:00 PM 10.1497 -67.9284 144° Southeast  Level Estimated
Mon 07:22:00 PM 10.1497 -67.9284 144° Southeast  Level Estimated
Mon 07:23:00 PM 10.1497 -67.9284 144° Southeast  Level Estimated
Mon 07:24:00 PM 10.1497 -67.9284 144° Southeast  Level Estimated
Mon 07:25:00 PM 10.1497 -67.9284 144° Southeast  Level Estimated
Mon 07:26:00 PM 10.1497 -67.9284 144° Southeast  Level Estimated
Mon 07:27:00 PM 10.1497 -67.9284 144° Southeast  Level Estimated
Mon 07:28:00 PM 10.1497 -67.9284 144° Southeast  Level Estimated
Mon 07:29:00 PM 10.1497 -67.9284 144° Southeast  Level Estimated
Mon 07:30:00 PM 10.1497 -67.9284 144° Southeast  Level Estimated
Mon 07:31:00 PM 10.1497 -67.9284 144° Southeast  Level Estimated
Mon 07:32:00 PM 10.1497 -67.9284 144° Southeast  Level Estimated
Mon 07:33:00 PM 10.1497 -67.9284 144° Southeast  Level Estimated
Mon 07:34:00 PM 10.1497 -67.9284 144° Southeast  Level Estimated
Mon 07:35:00 PM 10.1497 -67.9284 144° Southeast  Level Estimated
Mon 07:36:00 PM 10.1497 -67.9284 144° Southeast  Level Estimated

Login

Don't have an account? Register now (free) for customized features, flight alerts, and more!